CheckWX is a tool to help pilots better visualize weather data.  It is not intended as a substitute for an official pre-flight weather briefing.

13:27:19 UTC

VIDP METAR
Indira Gandhi International Airport
New Delhi, India
Current

27 mins ago

VIDP 181300Z 28005KT 3500 BR SCT035 BKN100 29/27 Q1003 NOSIG
Observed
Aug-18 @ 13:00 UTC
Wind
  • 280° at 5 KTS
Visibility
3,500 meters
Flight Rules
IFR
Conditions
Mist
Cloud Levels
  • Scattered at 3,500' AGL
  • Broken at 10,000' AGL
Temperature
29°C / 84°F
Dewpoint
27°C / 81°F
Heat Index
37°C / 98°F
Humidity
89%
Altimeter
29.62" Hg
Pressure
1002.92 hPa
Previous

57 mins ago

VIDP 181230Z 28005KT 3500 BR SCT035 BKN100 30/27 Q1003 NOSIG
Observed
Aug-18 @ 12:30 UTC
Wind
  • 280° at 5 KTS
Visibility
3,500 meters
Flight Rules
IFR
Conditions
Mist
Cloud Levels
  • Scattered at 3,500' AGL
  • Broken at 10,000' AGL
Temperature
30°C / 86°F
Dewpoint
27°C / 81°F
Heat Index
39°C / 102°F
Humidity
84%
Altimeter
29.62" Hg
Pressure
1002.92 hPa
Previous

1 hour ago

VIDP 181200Z 28005KT 3500 BR SCT035 BKN100 30/27 Q1003 NOSIG
Observed
Aug-18 @ 12:00 UTC
Wind
  • 280° at 5 KTS
Visibility
3,500 meters
Flight Rules
IFR
Conditions
Mist
Cloud Levels
  • Scattered at 3,500' AGL
  • Broken at 10,000' AGL
Temperature
30°C / 86°F
Dewpoint
27°C / 81°F
Heat Index
39°C / 102°F
Humidity
84%
Altimeter
29.62" Hg
Pressure
1002.92 hPa